This is the latest recevied weather packets stored in our database for station/object KD7AWQ. If no packets are shown the sender has not sent any weather packets the latest 1 day(s).
| Time | Temp. | Humidity | Pressure | Rain* | Wind** | Luminosity | Snow |
|---|---|---|---|---|---|---|---|
| 1778037785 | 15° C | 42% | 1181.1 hPa | 0 mm | 5.81 m/s, 310° | 0 W/m² | - |
| 1778037481 | 15° C | 42% | 1181.1 hPa | 0 mm | 5.36 m/s, 287° | 0 W/m² | - |
| 1778037179 | 15° C | 42% | 1181.2 hPa | 0 mm | 6.26 m/s, 298° | 0 W/m² | - |
| 1778036877 | 15° C | 42% | 1181.2 hPa | 0 mm | 3.13 m/s, 305° | 0 W/m² | - |
| 1778036574 | 15° C | 41% | 1181 hPa | 0 mm | 5.36 m/s, 331° | 0 W/m² | - |
| 1778036271 | 15° C | 41% | 1180.7 hPa | 0 mm | 5.36 m/s, 303° | 0 W/m² | - |
| 1778035967 | 15° C | 41% | 1180.7 hPa | 0 mm | 7.15 m/s, 333° | 0 W/m² | - |
| 1778035664 | 15.56° C | 41% | 1180.9 hPa | 0 mm | 5.36 m/s, 283° | 0 W/m² | - |
| 1778035361 | 15.56° C | 41% | 1180.7 hPa | 0 mm | 6.26 m/s, 305° | 0 W/m² | - |
| 1778035057 | 15.56° C | 41% | 1180.5 hPa | 0 mm | 6.71 m/s, 282° | 0 W/m² | - |
| 1778034754 | 15.56° C | 41% | 1180.6 hPa | 0 mm | 7.6 m/s, 318° | 0 W/m² | - |
| 1778034451 | 15.56° C | 41% | 1180.5 hPa | 0 mm | 4.92 m/s, 286° | 0 W/m² | - |
| 1778034149 | 15.56° C | 41% | 1180.2 hPa | 0 mm | 7.15 m/s, 304° | 0 W/m² | - |
| 1778033847 | 15.56° C | 40% | 1180.2 hPa | 0 mm | 9.39 m/s, 310° | 1 W/m² | - |
| 1778033544 | 15.56° C | 41% | 1180.1 hPa | 0 mm | 6.26 m/s, 294° | 2 W/m² | - |
| 1778033240 | 15.56° C | 41% | 1180 hPa | 0 mm | 9.39 m/s, 300° | 4 W/m² | - |
| 1778032938 | 15.56° C | 41% | 1180 hPa | 0 mm | 9.39 m/s, 290° | 6 W/m² | - |
| 1778032635 | 15.56° C | 42% | 1180.2 hPa | 0 mm | 6.71 m/s, 281° | 10 W/m² | - |
| 1778032333 | 15.56° C | 42% | 1180.1 hPa | 0 mm | 6.71 m/s, 263° | 13 W/m² | - |
| 1778032030 | 15.56° C | 42% | 1179.8 hPa | 0 mm | 7.6 m/s, 307° | 16 W/m² | - |
| 1778031726 | 15.56° C | 41% | 1179.7 hPa | 0 mm | 8.05 m/s, 305° | 18 W/m² | - |
| 1778031424 | 16.11° C | 41% | 1179.8 hPa | 0 mm | 7.6 m/s, 321° | 20 W/m² | - |
| 1778031121 | 16.11° C | 40% | 1179.6 hPa | 0 mm | 6.71 m/s, 318° | 25 W/m² | - |
| 1778030817 | 16.67° C | 39% | 1179.7 hPa | 0 mm | 5.81 m/s, 298° | 29 W/m² | - |
| 1778030514 | 16.67° C | 38% | 1179.6 hPa | 0 mm | 4.47 m/s, 292° | 32 W/m² | - |
* Rain latest hour (hover to see other rain measurements)
** Current wind speed in m/s (hover to see current wind gust speed)